sensor_id;sensor_type;location;lat;lon;timestamp;pressure;altitude;pressure_sealevel;temperature;humidity
71857;BME280;63344;46.980;28.882;2023-07-28T00:00:00;100158.78;;;16.20;68.17
71857;BME280;63344;46.980;28.882;2023-07-28T00:02:30;100149.56;;;16.11;68.66
71857;BME280;63344;46.980;28.882;2023-07-28T00:05:04;100156.53;;;16.14;68.35
71857;BME280;63344;46.980;28.882;2023-07-28T00:07:41;100152.38;;;16.10;68.87
71857;BME280;63344;46.980;28.882;2023-07-28T00:10:16;100148.28;;;16.04;69.05
71857;BME280;63344;46.980;28.882;2023-07-28T00:12:59;100160.09;;;16.02;68.91
71857;BME280;63344;46.980;28.882;2023-07-28T00:15:32;100163.81;;;15.99;69.49
71857;BME280;63344;46.980;28.882;2023-07-28T00:18:05;100157.69;;;15.97;69.41
71857;BME280;63344;46.980;28.882;2023-07-28T00:20:39;100158.78;;;15.95;69.68
71857;BME280;63344;46.980;28.882;2023-07-28T00:23:18;100149.25;;;15.90;69.48
71857;BME280;63344;46.980;28.882;2023-07-28T00:26:36;100159.72;;;15.93;70.08
71857;BME280;63344;46.980;28.882;2023-07-28T00:29:09;100160.72;;;15.92;70.21
71857;BME280;63344;46.980;28.882;2023-07-28T00:31:40;100151.06;;;15.90;70.56
71857;BME280;63344;46.980;28.882;2023-07-28T00:34:14;100141.72;;;15.83;70.59
71857;BME280;63344;46.980;28.882;2023-07-28T00:36:51;100161.13;;;15.86;70.74
71857;BME280;63344;46.980;28.882;2023-07-28T00:39:24;100154.91;;;15.86;71.11
71857;BME280;63344;46.980;28.882;2023-07-28T00:42:09;100156.72;;;15.85;70.98
71857;BME280;63344;46.980;28.882;2023-07-28T00:44:40;100161.66;;;15.91;70.95
71857;BME280;63344;46.980;28.882;2023-07-28T00:47:09;100162.81;;;15.87;71.06
71857;BME280;63344;46.980;28.882;2023-07-28T00:49:50;100165.63;;;15.86;70.97
71857;BME280;63344;46.980;28.882;2023-07-28T00:52:19;100177.53;;;15.95;70.66
71857;BME280;63344;46.980;28.882;2023-07-28T00:54:53;100174.84;;;15.95;70.86
71857;BME280;63344;46.980;28.882;2023-07-28T00:57:24;100168.66;;;15.94;70.48
71857;BME280;63344;46.980;28.882;2023-07-28T00:59:57;100170.25;;;15.97;70.81
71857;BME280;63344;46.980;28.882;2023-07-28T01:02:36;100165.88;;;15.96;70.48
71857;BME280;63344;46.980;28.882;2023-07-28T01:05:10;100166.91;;;15.93;70.41
71857;BME280;63344;46.980;28.882;2023-07-28T01:08:06;100164.47;;;15.90;70.29
71857;BME280;63344;46.980;28.882;2023-07-28T01:10:48;100162.41;;;15.93;70.84
71857;BME280;63344;46.980;28.882;2023-07-28T01:13:21;100166.91;;;15.93;70.79
71857;BME280;63344;46.980;28.882;2023-07-28T01:16:14;100165.31;;;15.90;70.50
71857;BME280;63344;46.980;28.882;2023-07-28T01:18:45;100161.56;;;15.93;70.73
71857;BME280;63344;46.980;28.882;2023-07-28T01:21:37;100167.88;;;15.92;70.76
71857;BME280;63344;46.980;28.882;2023-07-28T01:24:37;100172.50;;;15.90;70.81
71857;BME280;63344;46.980;28.882;2023-07-28T01:27:35;100161.03;;;15.88;70.88
71857;BME280;63344;46.980;28.882;2023-07-28T01:30:07;100164.56;;;15.88;70.87
71857;BME280;63344;46.980;28.882;2023-07-28T01:32:37;100170.84;;;15.87;71.06
71857;BME280;63344;46.980;28.882;2023-07-28T01:35:07;100161.97;;;15.87;71.01
71857;BME280;63344;46.980;28.882;2023-07-28T01:37:59;100170.00;;;15.87;70.87
71857;BME280;63344;46.980;28.882;2023-07-28T01:40:28;100178.13;;;15.85;70.91
71857;BME280;63344;46.980;28.882;2023-07-28T01:43:15;100173.00;;;15.82;70.91
71857;BME280;63344;46.980;28.882;2023-07-28T01:46:04;100186.31;;;15.84;70.78
71857;BME280;63344;46.980;28.882;2023-07-28T01:49:09;100177.28;;;15.85;70.49
71857;BME280;63344;46.980;28.882;2023-07-28T01:51:51;100187.06;;;15.86;70.86
71857;BME280;63344;46.980;28.882;2023-07-28T01:54:58;100189.84;;;15.84;70.45
71857;BME280;63344;46.980;28.882;2023-07-28T01:58:21;100189.84;;;15.84;70.44
71857;BME280;63344;46.980;28.882;2023-07-28T02:01:15;100204.06;;;15.85;70.89
71857;BME280;63344;46.980;28.882;2023-07-28T02:04:22;100199.69;;;15.84;70.86
71857;BME280;63344;46.980;28.882;2023-07-28T02:07:59;100195.38;;;15.81;70.60
71857;BME280;63344;46.980;28.882;2023-07-28T02:11:02;100206.41;;;15.77;71.15
71857;BME280;63344;46.980;28.882;2023-07-28T02:13:37;100214.53;;;15.75;71.19
71857;BME280;63344;46.980;28.882;2023-07-28T02:16:36;100226.00;;;15.77;71.05
71857;BME280;63344;46.980;28.882;2023-07-28T02:19:38;100233.19;;;15.77;71.15
71857;BME280;63344;46.980;28.882;2023-07-28T02:23:21;100241.13;;;15.78;71.02
71857;BME280;63344;46.980;28.882;2023-07-28T02:26:58;100234.03;;;15.77;70.76
71857;BME280;63344;46.980;28.882;2023-07-28T02:30:07;100237.09;;;15.71;70.73
71857;BME280;63344;46.980;28.882;2023-07-28T02:33:20;100238.81;;;15.72;70.74
71857;BME280;63344;46.980;28.882;2023-07-28T02:36:07;100241.69;;;15.69;70.70
71857;BME280;63344;46.980;28.882;2023-07-28T02:38:51;100243.53;;;15.68;70.64
71857;BME280;63344;46.980;28.882;2023-07-28T02:41:24;100246.19;;;15.68;70.31
71857;BME280;63344;46.980;28.882;2023-07-28T02:44:25;100247.66;;;15.74;70.24
71857;BME280;63344;46.980;28.882;2023-07-28T02:47:02;100254.72;;;15.75;70.50
71857;BME280;63344;46.980;28.882;2023-07-28T02:49:42;100247.81;;;15.71;70.31
71857;BME280;63344;46.980;28.882;2023-07-28T02:52:11;100261.69;;;15.78;70.51
71857;BME280;63344;46.980;28.882;2023-07-28T02:54:57;100254.53;;;15.78;69.99
71857;BME280;63344;46.980;28.882;2023-07-28T02:58:05;100260.63;;;15.80;70.02
71857;BME280;63344;46.980;28.882;2023-07-28T03:00:59;100276.06;;;15.89;70.28
71857;BME280;63344;46.980;28.882;2023-07-28T03:03:58;100277.47;;;15.95;69.89
71857;BME280;63344;46.980;28.882;2023-07-28T03:07:00;100281.38;;;16.04;69.86
71857;BME280;63344;46.980;28.882;2023-07-28T03:09:46;100279.03;;;16.12;69.21
71857;BME280;63344;46.980;28.882;2023-07-28T03:12:29;100279.50;;;16.31;68.67
71857;BME280;63344;46.980;28.882;2023-07-28T03:15:23;100274.81;;;16.48;68.58
71857;BME280;63344;46.980;28.882;2023-07-28T03:18:08;100271.59;;;16.68;67.74
71857;BME280;63344;46.980;28.882;2023-07-28T03:20:57;100283.75;;;17.00;68.25
71857;BME280;63344;46.980;28.882;2023-07-28T03:24:38;100285.94;;;17.31;66.14
71857;BME280;63344;46.980;28.882;2023-07-28T03:27:42;100286.09;;;17.54;65.86
71857;BME280;63344;46.980;28.882;2023-07-28T03:30:16;100294.38;;;17.75;64.96
71857;BME280;63344;46.980;28.882;2023-07-28T03:33:20;100287.09;;;18.01;64.05
71857;BME280;63344;46.980;28.882;2023-07-28T03:35:59;100281.88;;;18.11;63.14
71857;BME280;63344;46.980;28.882;2023-07-28T03:38:45;100290.59;;;18.26;62.91
71857;BME280;63344;46.980;28.882;2023-07-28T03:41:25;100292.72;;;18.45;62.48
71857;BME280;63344;46.980;28.882;2023-07-28T03:44:22;100291.22;;;18.76;62.12
71857;BME280;63344;46.980;28.882;2023-07-28T03:47:10;100283.41;;;18.84;61.30
71857;BME280;63344;46.980;28.882;2023-07-28T03:50:07;100298.97;;;19.03;60.21
71857;BME280;63344;46.980;28.882;2023-07-28T03:52:44;100284.53;;;19.04;59.68
71857;BME280;63344;46.980;28.882;2023-07-28T03:55:22;100271.31;;;19.13;59.06
71857;BME280;63344;46.980;28.882;2023-07-28T03:58:08;100289.66;;;19.30;58.97
71857;BME280;63344;46.980;28.882;2023-07-28T04:01:06;100285.69;;;19.57;58.31
71857;BME280;63344;46.980;28.882;2023-07-28T04:04:10;100279.50;;;19.88;58.05
71857;BME280;63344;46.980;28.882;2023-07-28T04:07:41;100287.56;;;20.21;55.90
71857;BME280;63344;46.980;28.882;2023-07-28T04:11:16;100290.91;;;20.45;55.95
71857;BME280;63344;46.980;28.882;2023-07-28T04:14:58;100292.41;;;20.80;55.62
71857;BME280;63344;46.980;28.882;2023-07-28T04:18:21;100283.56;;;20.99;53.85
71857;BME280;63344;46.980;28.882;2023-07-28T04:21:50;100301.72;;;21.28;54.49
71857;BME280;63344;46.980;28.882;2023-07-28T04:33:06;100286.09;;;21.72;51.17
71857;BME280;63344;46.980;28.882;2023-07-28T04:36:57;100298.78;;;22.01;50.96
71857;BME280;63344;46.980;28.882;2023-07-28T04:40:28;100293.97;;;22.24;51.22
71857;BME280;63344;46.980;28.882;2023-07-28T04:43:52;100297.34;;;22.75;50.64
71857;BME280;63344;46.980;28.882;2023-07-28T04:47:23;100283.00;;;23.02;49.75
71857;BME280;63344;46.980;28.882;2023-07-28T04:50:58;100287.66;;;23.19;47.60
71857;BME280;63344;46.980;28.882;2023-07-28T04:54:29;100295.31;;;23.24;48.18
71857;BME280;63344;46.980;28.882;2023-07-28T04:58:50;100302.28;;;23.54;47.20
71857;BME280;63344;46.980;28.882;2023-07-28T05:03:02;100300.16;;;24.03;47.10
71857;BME280;63344;46.980;28.882;2023-07-28T05:06:49;100289.75;;;24.53;47.09
71857;BME280;63344;46.980;28.882;2023-07-28T05:10:14;100289.53;;;24.98;44.99
71857;BME280;63344;46.980;28.882;2023-07-28T05:14:31;100296.50;;;25.01;44.65
71857;BME280;63344;46.980;28.882;2023-07-28T05:27:21;100291.56;;;25.90;42.29
71857;BME280;63344;46.980;28.882;2023-07-28T05:44:04;100296.94;;;25.14;41.00
71857;BME280;63344;46.980;28.882;2023-07-28T05:47:53;100297.16;;;24.95;41.66
71857;BME280;63344;46.980;28.882;2023-07-28T05:54:51;100299.19;;;24.49;41.25
71857;BME280;63344;46.980;28.882;2023-07-28T06:01:50;100304.41;;;22.95;44.38
71857;BME280;63344;46.980;28.882;2023-07-28T06:05:29;100300.53;;;22.41;45.90
71857;BME280;63344;46.980;28.882;2023-07-28T06:09:13;100305.06;;;22.01;47.01
71857;BME280;63344;46.980;28.882;2023-07-28T06:25:51;100312.16;;;20.81;49.90
71857;BME280;63344;46.980;28.882;2023-07-28T06:29:53;100309.97;;;20.65;49.88
71857;BME280;63344;46.980;28.882;2023-07-28T06:42:19;100317.78;;;20.57;50.09
71857;BME280;63344;46.980;28.882;2023-07-28T06:46:01;100307.88;;;20.57;50.29
71857;BME280;63344;46.980;28.882;2023-07-28T06:58:14;100325.28;;;20.64;49.55
71857;BME280;63344;46.980;28.882;2023-07-28T07:02:15;100311.06;;;20.62;50.14
71857;BME280;63344;46.980;28.882;2023-07-28T07:14:19;100331.81;;;20.93;49.40
71857;BME280;63344;46.980;28.882;2023-07-28T07:18:18;100325.47;;;20.94;48.72
71857;BME280;63344;46.980;28.882;2023-07-28T07:21:59;100331.75;;;21.04;48.48
71857;BME280;63344;46.980;28.882;2023-07-28T07:25:52;100336.22;;;21.15;47.98
71857;BME280;63344;46.980;28.882;2023-07-28T07:42:59;100348.91;;;21.55;47.12
71857;BME280;63344;46.980;28.882;2023-07-28T08:03:15;100333.94;;;22.11;44.42
71857;BME280;63344;46.980;28.882;2023-07-28T08:18:17;100332.34;;;22.86;44.99
71857;BME280;63344;46.980;28.882;2023-07-28T08:21:50;100325.75;;;22.98;43.24
71857;BME280;63344;46.980;28.882;2023-07-28T08:33:11;100308.94;;;24.77;39.18
71857;BME280;63344;46.980;28.882;2023-07-28T08:37:04;100326.31;;;26.04;38.06
71857;BME280;63344;46.980;28.882;2023-07-28T08:45:27;100330.06;;;28.28;33.90
71857;BME280;63344;46.980;28.882;2023-07-28T08:49:28;100314.72;;;29.48;31.52
71857;BME280;63344;46.980;28.882;2023-07-28T08:53:51;100322.38;;;29.89;29.86
71857;BME280;63344;46.980;28.882;2023-07-28T08:57:19;100326.59;;;30.28;30.00
71857;BME280;63344;46.980;28.882;2023-07-28T09:01:22;100315.44;;;31.01;29.33
71857;BME280;63344;46.980;28.882;2023-07-28T09:04:54;100334.47;;;31.09;27.61
71857;BME280;63344;46.980;28.882;2023-07-28T09:11:28;100328.03;;;31.58;28.42
71857;BME280;63344;46.980;28.882;2023-07-28T09:15:47;100329.50;;;32.29;26.44
71857;BME280;63344;46.980;28.882;2023-07-28T09:36:48;100317.22;;;33.31;25.56
71857;BME280;63344;46.980;28.882;2023-07-28T09:40:28;100315.72;;;33.36;25.04
71857;BME280;63344;46.980;28.882;2023-07-28T09:48:05;100304.69;;;34.26;22.88
71857;BME280;63344;46.980;28.882;2023-07-28T09:51:33;100322.81;;;34.15;24.30
71857;BME280;63344;46.980;28.882;2023-07-28T09:58:37;100310.31;;;34.63;22.50
71857;BME280;63344;46.980;28.882;2023-07-28T10:02:00;100303.78;;;34.32;22.99
71857;BME280;63344;46.980;28.882;2023-07-28T10:06:23;100301.63;;;34.02;23.94
71857;BME280;63344;46.980;28.882;2023-07-28T10:10:28;100312.16;;;32.28;22.99
71857;BME280;63344;46.980;28.882;2023-07-28T10:19:06;100308.78;;;30.60;26.87
71857;BME280;63344;46.980;28.882;2023-07-28T10:23:01;100316.75;;;30.33;26.01
71857;BME280;63344;46.980;28.882;2023-07-28T11:02:05;100292.06;;;27.16;29.89
71857;BME280;63344;46.980;28.882;2023-07-28T11:06:31;100287.34;;;26.94;29.38
71857;BME280;63344;46.980;28.882;2023-07-28T11:16:59;100288.94;;;26.47;30.42
71857;BME280;63344;46.980;28.882;2023-07-28T11:20:28;100282.94;;;26.52;30.56
71857;BME280;63344;46.980;28.882;2023-07-28T11:32:36;100289.47;;;26.34;30.40
71857;BME280;63344;46.980;28.882;2023-07-28T12:35:57;100256.25;;;26.47;29.72
71857;BME280;63344;46.980;28.882;2023-07-28T12:43:22;100244.84;;;26.43;29.34
71857;BME280;63344;46.980;28.882;2023-07-28T12:46:52;100244.34;;;26.48;30.42
71857;BME280;63344;46.980;28.882;2023-07-28T12:50:56;100251.13;;;26.77;30.18
71857;BME280;63344;46.980;28.882;2023-07-28T12:54:22;100233.88;;;26.93;29.70
71857;BME280;63344;46.980;28.882;2023-07-28T12:58:44;100248.31;;;27.01;29.29
71857;BME280;63344;46.980;28.882;2023-07-28T13:07:22;100252.13;;;26.84;29.74
71857;BME280;63344;46.980;28.882;2023-07-28T13:32:50;100230.59;;;26.97;30.46
71857;BME280;63344;46.980;28.882;2023-07-28T13:58:05;100235.00;;;27.07;29.69
71857;BME280;63344;46.980;28.882;2023-07-28T14:06:14;100223.72;;;27.10;29.76
71857;BME280;63344;46.980;28.882;2023-07-28T14:13:19;100227.84;;;27.06;30.27
71857;BME280;63344;46.980;28.882;2023-07-28T14:16:48;100218.91;;;26.80;30.80
71857;BME280;63344;46.980;28.882;2023-07-28T14:25:07;100223.09;;;26.99;30.95
71857;BME280;63344;46.980;28.882;2023-07-28T14:42:13;100209.47;;;26.99;30.20
71857;BME280;63344;46.980;28.882;2023-07-28T14:57:49;100211.41;;;27.30;30.39
71857;BME280;63344;46.980;28.882;2023-07-28T15:01:30;100203.75;;;27.26;29.95
71857;BME280;63344;46.980;28.882;2023-07-28T15:17:39;100207.75;;;27.07;30.32
71857;BME280;63344;46.980;28.882;2023-07-28T15:21:30;100207.09;;;26.96;30.50
71857;BME280;63344;46.980;28.882;2023-07-28T15:30:38;100212.34;;;26.98;30.77
71857;BME280;63344;46.980;28.882;2023-07-28T15:35:03;100213.91;;;27.00;30.53
71857;BME280;63344;46.980;28.882;2023-07-28T15:43:00;100203.25;;;26.82;30.11
71857;BME280;63344;46.980;28.882;2023-07-28T15:46:40;100208.53;;;26.68;30.43
71857;BME280;63344;46.980;28.882;2023-07-28T16:16:01;100223.22;;;26.58;31.39
71857;BME280;63344;46.980;28.882;2023-07-28T16:19:37;100222.34;;;26.50;31.45
71857;BME280;63344;46.980;28.882;2023-07-28T16:31:42;100234.31;;;26.32;31.98
71857;BME280;63344;46.980;28.882;2023-07-28T16:35:59;100229.03;;;26.22;32.06
71857;BME280;63344;46.980;28.882;2023-07-28T16:39:41;100222.91;;;26.20;32.26
71857;BME280;63344;46.980;28.882;2023-07-28T16:43:24;100227.84;;;26.09;32.17
71857;BME280;63344;46.980;28.882;2023-07-28T16:47:21;100231.41;;;26.01;32.77
71857;BME280;63344;46.980;28.882;2023-07-28T16:50:45;100234.13;;;25.93;32.98
71857;BME280;63344;46.980;28.882;2023-07-28T16:58:15;100233.75;;;25.71;33.84
71857;BME280;63344;46.980;28.882;2023-07-28T17:01:39;100230.63;;;25.58;33.83
71857;BME280;63344;46.980;28.882;2023-07-28T17:18:35;100246.19;;;24.89;36.65
71857;BME280;63344;46.980;28.882;2023-07-28T17:22:34;100246.19;;;24.62;37.14
71857;BME280;63344;46.980;28.882;2023-07-28T17:34:00;100254.31;;;24.18;38.77
71857;BME280;63344;46.980;28.882;2023-07-28T17:37:38;100247.91;;;24.01;38.79
71857;BME280;63344;46.980;28.882;2023-07-28T18:46:02;100278.97;;;20.90;49.30
71857;BME280;63344;46.980;28.882;2023-07-28T18:50:00;100277.59;;;20.75;50.41
71857;BME280;63344;46.980;28.882;2023-07-28T19:05:51;100269.38;;;20.13;52.47
71857;BME280;63344;46.980;28.882;2023-07-28T19:09:08;100273.44;;;20.07;53.64
71857;BME280;63344;46.980;28.882;2023-07-28T19:34:47;100273.13;;;19.35;55.52
71857;BME280;63344;46.980;28.882;2023-07-28T19:38:26;100266.38;;;19.29;55.92
71857;BME280;63344;46.980;28.882;2023-07-28T19:42:10;100275.97;;;19.22;55.65
71857;BME280;63344;46.980;28.882;2023-07-28T19:45:52;100276.44;;;19.16;56.23
71857;BME280;63344;46.980;28.882;2023-07-28T20:04:14;100276.56;;;18.80;57.62
71857;BME280;63344;46.980;28.882;2023-07-28T20:11:13;100285.94;;;18.63;58.67
71857;BME280;63344;46.980;28.882;2023-07-28T20:13:46;100280.16;;;18.57;59.50
71857;BME280;63344;46.980;28.882;2023-07-28T20:16:46;100286.75;;;18.52;59.93
71857;BME280;63344;46.980;28.882;2023-07-28T20:19:44;100286.59;;;18.43;59.75
71857;BME280;63344;46.980;28.882;2023-07-28T20:22:54;100286.34;;;18.35;59.71
71857;BME280;63344;46.980;28.882;2023-07-28T20:25:37;100291.72;;;18.35;59.64
71857;BME280;63344;46.980;28.882;2023-07-28T20:28:10;100287.28;;;18.22;59.79
71857;BME280;63344;46.980;28.882;2023-07-28T20:31:12;100304.16;;;18.24;60.32
71857;BME280;63344;46.980;28.882;2023-07-28T20:33:49;100303.78;;;18.18;60.55
71857;BME280;63344;46.980;28.882;2023-07-28T20:36:29;100300.34;;;18.16;61.48
71857;BME280;63344;46.980;28.882;2023-07-28T20:39:40;100294.41;;;17.99;62.12
71857;BME280;63344;46.980;28.882;2023-07-28T20:42:21;100302.69;;;17.96;61.77
71857;BME280;63344;46.980;28.882;2023-07-28T20:45:09;100312.81;;;17.92;62.41
71857;BME280;63344;46.980;28.882;2023-07-28T20:47:46;100313.91;;;17.90;62.87
71857;BME280;63344;46.980;28.882;2023-07-28T20:50:28;100286.94;;;17.79;63.42
71857;BME280;63344;46.980;28.882;2023-07-28T20:53:20;100307.59;;;17.78;64.08
71857;BME280;63344;46.980;28.882;2023-07-28T20:55:54;100314.25;;;17.72;63.98
71857;BME280;63344;46.980;28.882;2023-07-28T20:58:55;100314.38;;;17.71;64.08
71857;BME280;63344;46.980;28.882;2023-07-28T21:01:48;100323.41;;;17.70;64.71
71857;BME280;63344;46.980;28.882;2023-07-28T21:04:29;100317.41;;;17.66;64.62
71857;BME280;63344;46.980;28.882;2023-07-28T21:07:45;100319.25;;;17.66;64.41
71857;BME280;63344;46.980;28.882;2023-07-28T21:14:38;100318.53;;;17.75;63.91
71857;BME280;63344;46.980;28.882;2023-07-28T21:17:56;100325.25;;;17.69;64.86
71857;BME280;63344;46.980;28.882;2023-07-28T21:24:14;100310.44;;;17.64;65.49
71857;BME280;63344;46.980;28.882;2023-07-28T21:26:50;100298.31;;;17.58;65.34
71857;BME280;63344;46.980;28.882;2023-07-28T21:29:44;100298.06;;;17.61;65.52
71857;BME280;63344;46.980;28.882;2023-07-28T21:32:35;100303.56;;;17.60;65.83
71857;BME280;63344;46.980;28.882;2023-07-28T21:35:18;100301.84;;;17.59;65.70
71857;BME280;63344;46.980;28.882;2023-07-28T21:37:54;100310.34;;;17.52;66.74
71857;BME280;63344;46.980;28.882;2023-07-28T21:40:26;100309.41;;;17.54;67.02
71857;BME280;63344;46.980;28.882;2023-07-28T21:43:20;100317.66;;;17.50;66.80
71857;BME280;63344;46.980;28.882;2023-07-28T21:46:14;100309.22;;;17.44;67.04
71857;BME280;63344;46.980;28.882;2023-07-28T21:49:00;100304.69;;;17.44;67.36
71857;BME280;63344;46.980;28.882;2023-07-28T21:51:51;100308.66;;;17.51;67.23
71857;BME280;63344;46.980;28.882;2023-07-28T21:54:37;100305.97;;;17.51;67.61
71857;BME280;63344;46.980;28.882;2023-07-28T21:57:14;100297.66;;;17.55;67.26
71857;BME280;63344;46.980;28.882;2023-07-28T21:59:43;100297.91;;;17.51;68.12
71857;BME280;63344;46.980;28.882;2023-07-28T22:02:21;100290.34;;;17.57;68.26
71857;BME280;63344;46.980;28.882;2023-07-28T22:05:01;100302.59;;;17.61;68.68
71857;BME280;63344;46.980;28.882;2023-07-28T22:07:52;100305.16;;;17.62;68.98
71857;BME280;63344;46.980;28.882;2023-07-28T22:10:33;100293.59;;;17.62;68.38
71857;BME280;63344;46.980;28.882;2023-07-28T22:13:07;100297.19;;;17.74;68.41
71857;BME280;63344;46.980;28.882;2023-07-28T22:15:47;100296.59;;;17.81;67.90
71857;BME280;63344;46.980;28.882;2023-07-28T22:18:19;100295.47;;;17.85;68.09
71857;BME280;63344;46.980;28.882;2023-07-28T22:20:53;100292.53;;;17.88;68.09
71857;BME280;63344;46.980;28.882;2023-07-28T22:23:46;100296.69;;;17.92;68.19
71857;BME280;63344;46.980;28.882;2023-07-28T22:26:44;100300.13;;;17.95;68.52
71857;BME280;63344;46.980;28.882;2023-07-28T22:29:22;100299.75;;;17.88;68.34
71857;BME280;63344;46.980;28.882;2023-07-28T22:32:15;100292.88;;;17.84;68.66
71857;BME280;63344;46.980;28.882;2023-07-28T22:35:02;100298.31;;;17.82;68.85
71857;BME280;63344;46.980;28.882;2023-07-28T22:37:38;100299.00;;;17.73;69.11
71857;BME280;63344;46.980;28.882;2023-07-28T22:40:35;100303.88;;;17.68;68.62
71857;BME280;63344;46.980;28.882;2023-07-28T22:43:06;100293.59;;;17.62;68.97
71857;BME280;63344;46.980;28.882;2023-07-28T22:45:50;100291.66;;;17.51;68.60
71857;BME280;63344;46.980;28.882;2023-07-28T22:48:36;100297.28;;;17.48;69.12
71857;BME280;63344;46.980;28.882;2023-07-28T22:51:09;100301.06;;;17.45;69.90
71857;BME280;63344;46.980;28.882;2023-07-28T22:53:45;100301.47;;;17.39;70.25
71857;BME280;63344;46.980;28.882;2023-07-28T22:56:54;100293.84;;;17.33;70.43
71857;BME280;63344;46.980;28.882;2023-07-28T22:59:54;100298.63;;;17.29;69.87
71857;BME280;63344;46.980;28.882;2023-07-28T23:02:44;100293.66;;;17.23;70.16
71857;BME280;63344;46.980;28.882;2023-07-28T23:05:32;100297.34;;;17.22;69.38
71857;BME280;63344;46.980;28.882;2023-07-28T23:08:06;100295.59;;;17.21;69.22
71857;BME280;63344;46.980;28.882;2023-07-28T23:11:05;100293.78;;;17.22;69.72
71857;BME280;63344;46.980;28.882;2023-07-28T23:13:48;100295.09;;;17.16;70.74
71857;BME280;63344;46.980;28.882;2023-07-28T23:16:25;100285.00;;;17.07;71.26
71857;BME280;63344;46.980;28.882;2023-07-28T23:18:56;100271.72;;;16.92;71.84
71857;BME280;63344;46.980;28.882;2023-07-28T23:21:32;100289.53;;;16.94;71.80
71857;BME280;63344;46.980;28.882;2023-07-28T23:24:06;100279.34;;;16.86;71.96
71857;BME280;63344;46.980;28.882;2023-07-28T23:26:39;100267.28;;;16.79;71.82
71857;BME280;63344;46.980;28.882;2023-07-28T23:29:09;100282.03;;;16.86;72.00
71857;BME280;63344;46.980;28.882;2023-07-28T23:31:59;100272.75;;;16.77;72.60
71857;BME280;63344;46.980;28.882;2023-07-28T23:34:28;100280.72;;;16.79;72.99
71857;BME280;63344;46.980;28.882;2023-07-28T23:37:04;100285.56;;;16.73;73.48
71857;BME280;63344;46.980;28.882;2023-07-28T23:39:52;100284.25;;;16.66;73.34
71857;BME280;63344;46.980;28.882;2023-07-28T23:42:28;100287.88;;;16.65;73.88
71857;BME280;63344;46.980;28.882;2023-07-28T23:45:09;100277.59;;;16.59;74.35
71857;BME280;63344;46.980;28.882;2023-07-28T23:47:44;100284.88;;;16.57;74.45
71857;BME280;63344;46.980;28.882;2023-07-28T23:50:42;100283.38;;;16.53;74.38
71857;BME280;63344;46.980;28.882;2023-07-28T23:53:24;100272.22;;;16.46;74.51
71857;BME280;63344;46.980;28.882;2023-07-28T23:56:05;100266.31;;;16.41;74.22
71857;BME280;63344;46.980;28.882;2023-07-28T23:58:48;100266.63;;;16.37;74.35
